Time;durP1;ratioP1;P1;durP2;ratioP2;P2;SDS_P1;SDS_P2;PMS_P1;PMS_P2;Temp;Humidity;BMP_temperature;BMP_pressure;BME280_temperature;BME280_humidity;BME280_pressure;Samples;Min_cycle;Max_cycle;Signal;HPM_P1;HPM_P2
2023/08/02 00:01:53;;;;;;;20.63;19.13;;;;;;;;;;5159317;27;20466;-83
2023/08/02 00:04:22;;;;;;;21.50;19.67;;;;;;;;;;5158766;27;20490;-83
2023/08/02 00:06:49;;;;;;;19.20;18.00;;;;;;;;;;5158514;27;20446;-84
2023/08/02 00:09:16;;;;;;;20.27;19.17;;;;;;;;;;5157088;27;20449;-84
2023/08/02 00:11:43;;;;;;;19.63;18.13;;;;;;;;;;5157929;27;20474;-83
2023/08/02 00:14:11;;;;;;;19.93;18.43;;;;;;;;;;5157045;27;20429;-83
2023/08/02 00:16:38;;;;;;;20.13;18.93;;;;;;;;;;5158671;27;20430;-83
2023/08/02 00:19:05;;;;;;;21.00;19.30;;;;;;;;;;5157352;27;20401;-83
2023/08/02 00:21:33;;;;;;;20.83;19.43;;;;;;;;;;5159735;27;20466;-84
2023/08/02 00:24:00;;;;;;;19.90;18.80;;;;;;;;;;5167535;27;20470;-84
2023/08/02 00:26:29;;;;;;;19.50;18.40;;;;;;;;;;5166513;27;20430;-83
2023/08/02 00:28:56;;;;;;;21.27;19.63;;;;;;;;;;5161749;27;20450;-83
2023/08/02 00:31:23;;;;;;;19.67;18.57;;;;;;;;;;5164502;27;20462;-84
2023/08/02 00:33:50;;;;;;;19.60;18.47;;;;;;;;;;5168270;27;20420;-84
2023/08/02 00:36:19;;;;;;;20.30;19.10;;;;;;;;;;5174396;27;20441;-84
2023/08/02 00:38:48;;;;;;;19.80;18.43;;;;;;;;;;5166707;27;20458;-82
2023/08/02 00:41:15;;;;;;;19.40;18.30;;;;;;;;;;5166727;27;21039;-83
2023/08/02 00:43:43;;;;;;;20.60;19.33;;;;;;;;;;5166922;27;20481;-84
2023/08/02 00:46:11;;;;;;;20.73;19.23;;;;;;;;;;5168499;27;20476;-85
2023/08/02 00:48:40;;;;;;;21.47;19.67;;;;;;;;;;5169554;27;20842;-83
2023/08/02 00:51:08;;;;;;;19.97;18.43;;;;;;;;;;5168751;27;20474;-82
2023/08/02 00:53:36;;;;;;;20.17;18.97;;;;;;;;;;5166071;27;20456;-83
2023/08/02 00:56:04;;;;;;;19.60;18.60;;;;;;;;;;5165169;27;20910;-85
2023/08/02 00:58:32;;;;;;;21.50;19.57;;;;;;;;;;5162088;27;20914;-83
2023/08/02 01:01:07;;;;;;;20.10;18.70;;;;;;;;;;5167668;27;20462;-84
2023/08/02 01:03:34;;;;;;;20.33;19.03;;;;;;;;;;5169504;27;20472;-84
2023/08/02 01:06:06;;;;;;;19.97;18.77;;;;;;;;;;5163906;27;20540;-83
2023/08/02 01:08:35;;;;;;;21.50;20.03;;;;;;;;;;5163464;27;20434;-84
2023/08/02 01:11:04;;;;;;;20.27;18.87;;;;;;;;;;5167137;27;20457;-83
2023/08/02 01:13:35;;;;;;;20.57;19.27;;;;;;;;;;5165602;27;20434;-84
2023/08/02 01:16:02;;;;;;;20.33;19.00;;;;;;;;;;5162011;27;20443;-84
2023/08/02 01:18:29;;;;;;;20.03;18.83;;;;;;;;;;5165518;27;20434;-84
2023/08/02 01:20:58;;;;;;;21.13;19.43;;;;;;;;;;5162557;27;20501;-83
2023/08/02 01:23:25;;;;;;;21.13;19.83;;;;;;;;;;5167178;27;20923;-83
2023/08/02 01:25:52;;;;;;;20.47;19.17;;;;;;;;;;5163927;27;21279;-84
2023/08/02 01:28:24;;;;;;;20.70;19.30;;;;;;;;;;5162218;27;20469;-83
2023/08/02 01:30:51;;;;;;;20.60;19.40;;;;;;;;;;5159533;27;20459;-83
2023/08/02 01:33:19;;;;;;;21.43;20.10;;;;;;;;;;5160083;27;20472;-83
2023/08/02 01:35:46;;;;;;;20.43;19.23;;;;;;;;;;5160011;27;20467;-83
2023/08/02 01:38:15;;;;;;;20.13;19.03;;;;;;;;;;5159699;27;20462;-85
2023/08/02 01:40:42;;;;;;;18.67;17.57;;;;;;;;;;5159016;27;20470;-84
2023/08/02 01:43:09;;;;;;;21.20;19.70;;;;;;;;;;5159644;27;20462;-84
2023/08/02 01:45:36;;;;;;;20.80;19.27;;;;;;;;;;5158652;27;20449;-83
2023/08/02 01:48:03;;;;;;;20.73;19.07;;;;;;;;;;5158479;27;20462;-83
2023/08/02 01:50:30;;;;;;;21.03;19.63;;;;;;;;;;5158317;27;20454;-84
2023/08/02 01:52:57;;;;;;;20.73;19.30;;;;;;;;;;5158651;27;20445;-83
2023/08/02 01:55:26;;;;;;;20.53;19.53;;;;;;;;;;5159293;27;21247;-84
2023/08/02 01:57:53;;;;;;;21.10;19.50;;;;;;;;;;5158759;27;20457;-83
2023/08/02 02:00:20;;;;;;;21.03;19.47;;;;;;;;;;5158393;27;20442;-84
2023/08/02 02:02:47;;;;;;;21.93;20.40;;;;;;;;;;5158710;27;20438;-83
2023/08/02 02:05:14;;;;;;;20.93;19.67;;;;;;;;;;5160950;27;20482;-83
2023/08/02 02:07:41;;;;;;;19.87;18.57;;;;;;;;;;5159766;27;20439;-83
2023/08/02 02:10:08;;;;;;;20.70;19.60;;;;;;;;;;5164242;27;20466;-83
2023/08/02 02:12:37;;;;;;;19.63;18.40;;;;;;;;;;5160268;27;20721;-84
2023/08/02 02:15:04;;;;;;;20.87;19.10;;;;;;;;;;5162231;27;20529;-83
2023/08/02 02:17:32;;;;;;;20.30;19.20;;;;;;;;;;5162400;27;20774;-83
2023/08/02 02:19:59;;;;;;;20.43;18.80;;;;;;;;;;5159383;27;20497;-84
2023/08/02 02:22:27;;;;;;;21.60;20.40;;;;;;;;;;5160359;27;20454;-84
2023/08/02 02:24:54;;;;;;;21.70;20.30;;;;;;;;;;5159639;27;20478;-83
2023/08/02 02:27:21;;;;;;;21.60;19.70;;;;;;;;;;5162853;27;20413;-83
2023/08/02 02:29:49;;;;;;;19.87;18.77;;;;;;;;;;5160282;27;20443;-83
2023/08/02 02:32:17;;;;;;;20.17;18.97;;;;;;;;;;5162873;27;20454;-84
2023/08/02 02:34:44;;;;;;;20.83;19.57;;;;;;;;;;5162640;27;20442;-83
2023/08/02 02:37:11;;;;;;;20.50;19.43;;;;;;;;;;5161772;27;20461;-83
2023/08/02 02:39:38;;;;;;;21.13;19.93;;;;;;;;;;5164154;27;20446;-82
2023/08/02 02:42:06;;;;;;;20.63;19.30;;;;;;;;;;5163657;27;20488;-84
2023/08/02 02:44:43;;;;;;;21.77;20.27;;;;;;;;;;5162973;27;20489;-84
2023/08/02 02:47:12;;;;;;;20.87;19.50;;;;;;;;;;5160530;27;20445;-83
2023/08/02 02:49:40;;;;;;;20.77;19.00;;;;;;;;;;5163770;27;20450;-85
2023/08/02 02:52:09;;;;;;;21.57;19.87;;;;;;;;;;5165970;27;20541;-84
2023/08/02 02:54:38;;;;;;;21.30;19.83;;;;;;;;;;5169561;27;20450;-83
2023/08/02 02:57:05;;;;;;;22.63;21.20;;;;;;;;;;5167772;27;20442;-83
2023/08/02 02:59:32;;;;;;;20.90;19.73;;;;;;;;;;5165825;27;20442;-83
2023/08/02 03:02:00;;;;;;;21.23;19.77;;;;;;;;;;5161644;27;20816;-82
2023/08/02 03:04:28;;;;;;;23.07;21.37;;;;;;;;;;5164187;27;20449;-83
2023/08/02 03:06:55;;;;;;;22.60;20.97;;;;;;;;;;5161800;27;20446;-85
2023/08/02 03:09:22;;;;;;;21.20;20.00;;;;;;;;;;5161248;27;20449;-83
2023/08/02 03:11:49;;;;;;;21.57;20.10;;;;;;;;;;5160427;27;20458;-84
2023/08/02 03:14:17;;;;;;;22.10;20.67;;;;;;;;;;5160768;27;20915;-84
2023/08/02 03:16:44;;;;;;;23.67;22.20;;;;;;;;;;5162414;27;20507;-83
2023/08/02 03:19:11;;;;;;;22.70;21.10;;;;;;;;;;5160097;27;20445;-84
2023/08/02 03:21:40;;;;;;;22.10;20.90;;;;;;;;;;5165317;27;20470;-84
2023/08/02 03:24:07;;;;;;;21.67;20.17;;;;;;;;;;5159141;27;20465;-83
2023/08/02 03:26:34;;;;;;;23.43;21.90;;;;;;;;;;5160692;27;20949;-83
2023/08/02 03:29:02;;;;;;;22.30;21.00;;;;;;;;;;5159445;27;20459;-84
2023/08/02 03:31:29;;;;;;;22.83;21.30;;;;;;;;;;5160012;27;20569;-84
2023/08/02 03:33:56;;;;;;;23.07;21.37;;;;;;;;;;5159180;27;20454;-84
2023/08/02 03:36:23;;;;;;;23.00;21.40;;;;;;;;;;5159701;27;20465;-84
2023/08/02 03:38:51;;;;;;;23.40;21.83;;;;;;;;;;5157749;27;20808;-82
2023/08/02 03:41:18;;;;;;;22.87;21.63;;;;;;;;;;5158244;27;20467;-83
2023/08/02 03:43:45;;;;;;;23.17;21.73;;;;;;;;;;5158043;27;20497;-84
2023/08/02 03:46:12;;;;;;;23.63;22.23;;;;;;;;;;5158831;27;20805;-83
2023/08/02 03:48:39;;;;;;;23.77;22.43;;;;;;;;;;5159200;27;20466;-84
2023/08/02 03:51:06;;;;;;;22.80;21.40;;;;;;;;;;5158899;27;20811;-83
2023/08/02 03:53:34;;;;;;;24.47;22.63;;;;;;;;;;5157834;27;20849;-84
2023/08/02 03:56:02;;;;;;;23.63;22.13;;;;;;;;;;5157707;27;20453;-84
2023/08/02 03:58:29;;;;;;;24.80;23.30;;;;;;;;;;5157877;27;20438;-84
2023/08/02 04:00:56;;;;;;;25.03;23.10;;;;;;;;;;5158850;27;20573;-84
2023/08/02 04:03:23;;;;;;;25.53;23.60;;;;;;;;;;5159423;27;21016;-78
2023/08/02 04:05:50;;;;;;;24.40;22.50;;;;;;;;;;5158591;27;20474;-78
2023/08/02 04:08:19;;;;;;;24.87;22.80;;;;;;;;;;5160166;27;20442;-80
2023/08/02 04:10:47;;;;;;;24.47;22.83;;;;;;;;;;5158221;27;20489;-78
2023/08/02 04:13:15;;;;;;;25.80;23.73;;;;;;;;;;5160895;27;20452;-78
2023/08/02 04:15:42;;;;;;;24.00;22.60;;;;;;;;;;5160802;27;20412;-79
2023/08/02 04:18:09;;;;;;;24.90;23.20;;;;;;;;;;5160829;27;20438;-79
2023/08/02 04:20:39;;;;;;;24.60;23.10;;;;;;;;;;5159855;27;20458;-79
2023/08/02 04:23:06;;;;;;;24.67;23.17;;;;;;;;;;5159692;27;20489;-78
2023/08/02 04:25:33;;;;;;;23.00;21.40;;;;;;;;;;5162738;27;20463;-79
2023/08/02 04:28:01;;;;;;;23.57;22.27;;;;;;;;;;5161482;27;20442;-80
2023/08/02 04:30:29;;;;;;;24.70;22.77;;;;;;;;;;5157725;27;20998;-79
2023/08/02 04:32:56;;;;;;;24.70;22.93;;;;;;;;;;5156913;27;20445;-79
2023/08/02 04:35:24;;;;;;;23.53;22.23;;;;;;;;;;5160053;27;20480;-78
2023/08/02 04:37:51;;;;;;;24.33;22.20;;;;;;;;;;5162868;27;20438;-79
2023/08/02 04:40:18;;;;;;;23.67;22.17;;;;;;;;;;5161555;27;20425;-79
2023/08/02 04:42:47;;;;;;;24.23;22.10;;;;;;;;;;5162187;27;20502;-79
2023/08/02 04:45:14;;;;;;;24.10;22.30;;;;;;;;;;5160557;27;20478;-79
2023/08/02 04:47:42;;;;;;;24.10;22.33;;;;;;;;;;5161987;27;20465;-79
2023/08/02 04:50:10;;;;;;;23.40;21.70;;;;;;;;;;5164601;27;20434;-80
2023/08/02 04:52:37;;;;;;;23.40;22.10;;;;;;;;;;5162569;27;20412;-78
2023/08/02 04:55:04;;;;;;;23.47;21.93;;;;;;;;;;5160751;27;20498;-79
2023/08/02 04:57:31;;;;;;;25.00;23.07;;;;;;;;;;5161106;27;20784;-79
2023/08/02 04:59:58;;;;;;;24.23;22.77;;;;;;;;;;5162013;27;20420;-79
2023/08/02 05:02:29;;;;;;;24.00;22.40;;;;;;;;;;5162476;27;20460;-79
2023/08/02 05:04:57;;;;;;;23.10;21.57;;;;;;;;;;5162598;27;20457;-78
2023/08/02 05:07:24;;;;;;;22.93;21.53;;;;;;;;;;5161517;27;20421;-79
2023/08/02 05:09:51;;;;;;;22.87;21.23;;;;;;;;;;5161587;27;20450;-78
2023/08/02 05:12:19;;;;;;;22.80;21.20;;;;;;;;;;5160919;27;20458;-79
2023/08/02 05:14:47;;;;;;;21.73;20.53;;;;;;;;;;5160961;27;20445;-79
2023/08/02 05:17:14;;;;;;;23.27;21.77;;;;;;;;;;5161438;27;20457;-78
2023/08/02 05:19:41;;;;;;;23.30;21.47;;;;;;;;;;5158611;27;20453;-77
2023/08/02 05:22:09;;;;;;;22.10;20.60;;;;;;;;;;5161325;27;20514;-79
2023/08/02 05:24:36;;;;;;;22.10;20.80;;;;;;;;;;5161387;27;20820;-78
2023/08/02 05:27:04;;;;;;;20.83;19.40;;;;;;;;;;5160002;27;20946;-78
2023/08/02 05:29:31;;;;;;;21.60;19.90;;;;;;;;;;5159189;27;20927;-77
2023/08/02 05:31:58;;;;;;;21.40;19.40;;;;;;;;;;5160093;27;20552;-78
2023/08/02 05:34:25;;;;;;;20.40;19.10;;;;;;;;;;5160514;27;20470;-79
2023/08/02 05:36:52;;;;;;;20.70;19.30;;;;;;;;;;5160621;27;20458;-79
2023/08/02 05:39:20;;;;;;;19.87;18.70;;;;;;;;;;5161421;27;20409;-78
2023/08/02 05:41:47;;;;;;;20.20;18.77;;;;;;;;;;5162555;27;20457;-79
2023/08/02 05:44:14;;;;;;;19.90;18.70;;;;;;;;;;5159745;27;20898;-80
2023/08/02 05:46:41;;;;;;;20.80;19.67;;;;;;;;;;5160533;27;20437;-78
2023/08/02 05:49:09;;;;;;;20.53;19.27;;;;;;;;;;5162714;27;20446;-79
2023/08/02 05:51:36;;;;;;;20.20;19.00;;;;;;;;;;5164855;27;20458;-78
2023/08/02 05:54:03;;;;;;;19.00;17.50;;;;;;;;;;5167495;27;20420;-77
2023/08/02 05:56:32;;;;;;;20.33;19.13;;;;;;;;;;5169613;27;20482;-78
2023/08/02 05:58:59;;;;;;;18.77;17.77;;;;;;;;;;5168910;27;20446;-79
2023/08/02 06:01:26;;;;;;;19.10;18.07;;;;;;;;;;5169344;27;21016;-78
2023/08/02 06:03:53;;;;;;;20.80;19.23;;;;;;;;;;5170733;27;20802;-79
2023/08/02 06:06:20;;;;;;;19.50;18.13;;;;;;;;;;5169594;27;20576;-79
2023/08/02 06:08:48;;;;;;;19.50;18.50;;;;;;;;;;5168326;27;20462;-77
2023/08/02 06:11:15;;;;;;;18.37;17.47;;;;;;;;;;5160276;27;20474;-79
2023/08/02 06:13:43;;;;;;;18.40;17.50;;;;;;;;;;5160376;27;20437;-78
2023/08/02 06:16:10;;;;;;;18.30;17.30;;;;;;;;;;5159580;27;20445;-78
2023/08/02 06:18:38;;;;;;;18.60;17.40;;;;;;;;;;5160568;27;20554;-79
2023/08/02 06:21:06;;;;;;;17.93;16.83;;;;;;;;;;5159295;27;20462;-79
2023/08/02 06:23:33;;;;;;;18.10;16.90;;;;;;;;;;5159477;27;20962;-79
2023/08/02 06:26:02;;;;;;;17.60;16.60;;;;;;;;;;5160140;27;20523;-78
2023/08/02 06:28:29;;;;;;;17.63;16.73;;;;;;;;;;5157847;27;20478;-79
2023/08/02 06:30:58;;;;;;;18.17;17.17;;;;;;;;;;5160687;27;20433;-80
2023/08/02 06:33:25;;;;;;;18.37;17.23;;;;;;;;;;5158910;27;20442;-78
2023/08/02 06:35:52;;;;;;;18.57;17.33;;;;;;;;;;5159957;27;20442;-78
2023/08/02 06:38:19;;;;;;;19.83;18.00;;;;;;;;;;5159083;27;20449;-82
2023/08/02 06:40:46;;;;;;;18.63;17.63;;;;;;;;;;5158854;27;20465;-79
2023/08/02 06:43:13;;;;;;;19.73;18.23;;;;;;;;;;5158132;27;20473;-79
2023/08/02 06:45:46;;;;;;;19.00;17.83;;;;;;;;;;5158990;27;20489;-76
2023/08/02 06:48:14;;;;;;;19.37;18.03;;;;;;;;;;5158924;27;20400;-78
2023/08/02 06:50:41;;;;;;;19.13;17.93;;;;;;;;;;5158335;27;20454;-79
2023/08/02 06:53:08;;;;;;;19.10;18.10;;;;;;;;;;5157968;27;20478;-77
2023/08/02 06:55:35;;;;;;;19.37;18.30;;;;;;;;;;5159092;27;20803;-80
2023/08/02 06:58:02;;;;;;;19.93;18.77;;;;;;;;;;5159333;27;20931;-78
2023/08/02 07:00:30;;;;;;;20.30;18.63;;;;;;;;;;5158046;27;20441;-78
2023/08/02 07:02:59;;;;;;;19.80;18.60;;;;;;;;;;5158181;27;20432;-77
2023/08/02 07:05:28;;;;;;;20.63;19.43;;;;;;;;;;5160660;27;20509;-78
2023/08/02 07:07:56;;;;;;;20.83;19.40;;;;;;;;;;5160080;27;20463;-78
2023/08/02 07:10:23;;;;;;;20.80;19.77;;;;;;;;;;5157641;27;20513;-79
2023/08/02 07:12:51;;;;;;;20.57;19.30;;;;;;;;;;5160814;27;20846;-78
2023/08/02 07:15:19;;;;;;;21.40;19.83;;;;;;;;;;5162034;27;20425;-79
2023/08/02 07:17:46;;;;;;;19.73;18.53;;;;;;;;;;5158476;27;20446;-77
2023/08/02 07:20:14;;;;;;;20.10;18.90;;;;;;;;;;5157527;27;20416;-78
2023/08/02 07:22:43;;;;;;;19.20;18.10;;;;;;;;;;5163899;27;20917;-79
2023/08/02 07:25:11;;;;;;;20.00;18.83;;;;;;;;;;5167507;27;20497;-78
2023/08/02 07:27:39;;;;;;;19.00;18.10;;;;;;;;;;5164533;27;20774;-79
2023/08/02 07:30:06;;;;;;;19.30;18.10;;;;;;;;;;5153902;27;20463;-79
2023/08/02 07:32:34;;;;;;;19.93;18.23;;;;;;;;;;5142767;27;20440;-77
2023/08/02 07:35:01;;;;;;;20.53;19.13;;;;;;;;;;5141375;27;20499;-77
2023/08/02 07:37:28;;;;;;;20.13;18.90;;;;;;;;;;5142097;27;20448;-75
2023/08/02 07:39:57;;;;;;;19.20;18.20;;;;;;;;;;5141965;27;20430;-75
2023/08/02 07:42:25;;;;;;;19.87;18.67;;;;;;;;;;5143090;27;20456;-76
2023/08/02 07:45:05;;;;;;;18.80;17.80;;;;;;;;;;5141492;27;20503;-77
2023/08/02 07:47:32;;;;;;;18.83;17.80;;;;;;;;;;5135189;27;20460;-77
2023/08/02 07:49:59;;;;;;;19.33;18.33;;;;;;;;;;5135766;27;20455;-77
2023/08/02 07:52:27;;;;;;;19.30;18.10;;;;;;;;;;5151294;27;20464;-76
2023/08/02 07:54:54;;;;;;;18.57;17.57;;;;;;;;;;5157531;27;20440;-78
2023/08/02 07:57:23;;;;;;;20.60;19.07;;;;;;;;;;5154719;27;20451;-77
2023/08/02 07:59:50;;;;;;;19.20;18.17;;;;;;;;;;5136840;27;21020;-74
2023/08/02 08:02:17;;;;;;;18.50;17.53;;;;;;;;;;5133474;27;20474;-75
2023/08/02 08:04:44;;;;;;;19.00;18.00;;;;;;;;;;5146602;27;20438;-79
2023/08/02 08:07:15;;;;;;;19.50;18.30;;;;;;;;;;5172380;27;20400;-78
2023/08/02 08:09:43;;;;;;;19.50;18.37;;;;;;;;;;5164050;27;20470;-76
2023/08/02 08:12:11;;;;;;;19.17;17.87;;;;;;;;;;5167481;27;20477;-79
2023/08/02 08:14:43;;;;;;;19.77;18.77;;;;;;;;;;5165832;27;20460;-77
2023/08/02 08:17:10;;;;;;;20.20;18.90;;;;;;;;;;5163670;27;20498;-77
2023/08/02 08:19:37;;;;;;;21.13;19.63;;;;;;;;;;5156163;27;20431;-79
2023/08/02 08:22:05;;;;;;;19.93;18.80;;;;;;;;;;5139894;27;20475;-78
2023/08/02 08:24:32;;;;;;;20.70;19.63;;;;;;;;;;5134925;28;20439;-76
2023/08/02 08:26:59;;;;;;;19.97;18.83;;;;;;;;;;5135318;27;20519;-75
2023/08/02 08:29:27;;;;;;;20.50;19.47;;;;;;;;;;5135389;27;20463;-76
2023/08/02 08:31:57;;;;;;;21.87;20.67;;;;;;;;;;5133712;27;20433;-75
2023/08/02 08:34:24;;;;;;;22.23;20.70;;;;;;;;;;5136715;27;20422;-76
2023/08/02 08:36:51;;;;;;;19.80;18.77;;;;;;;;;;5135409;27;20852;-77
2023/08/02 08:39:18;;;;;;;20.93;19.73;;;;;;;;;;5136591;28;20945;-77
2023/08/02 08:41:46;;;;;;;20.43;19.27;;;;;;;;;;5137021;28;20448;-79
2023/08/02 08:44:13;;;;;;;21.33;19.83;;;;;;;;;;5135502;27;20442;-77
2023/08/02 08:46:42;;;;;;;20.57;19.47;;;;;;;;;;5135613;28;20489;-76
2023/08/02 08:49:10;;;;;;;22.87;20.90;;;;;;;;;;5134381;27;20438;-77
2023/08/02 08:51:40;;;;;;;21.43;20.13;;;;;;;;;;5135597;27;20449;-77
2023/08/02 08:54:10;;;;;;;20.80;19.60;;;;;;;;;;5149622;27;20990;-75
2023/08/02 08:56:39;;;;;;;20.60;19.50;;;;;;;;;;5134066;28;20423;-75
2023/08/02 08:59:08;;;;;;;20.40;19.27;;;;;;;;;;5147410;27;20514;-76
2023/08/02 09:01:35;;;;;;;21.30;20.13;;;;;;;;;;5161239;27;20515;-81
2023/08/02 09:04:03;;;;;;;22.10;20.50;;;;;;;;;;5156874;27;20405;-80
2023/08/02 09:06:31;;;;;;;21.80;20.60;;;;;;;;;;5158102;27;20826;-81
2023/08/02 09:08:59;;;;;;;20.77;19.60;;;;;;;;;;5159529;27;20465;-80
2023/08/02 09:11:27;;;;;;;21.33;20.03;;;;;;;;;;5161627;27;20470;-80
2023/08/02 09:14:09;;;;;;;21.03;19.37;;;;;;;;;;5144128;27;20482;-79
2023/08/02 09:16:36;;;;;;;21.00;19.90;;;;;;;;;;5139724;27;20430;-79
2023/08/02 09:19:03;;;;;;;20.90;19.60;;;;;;;;;;5137744;27;20435;-79
2023/08/02 09:21:32;;;;;;;21.33;19.90;;;;;;;;;;5141846;27;20466;-81
2023/08/02 09:24:01;;;;;;;20.87;19.70;;;;;;;;;;5161382;27;20442;-82
2023/08/02 09:26:30;;;;;;;21.27;20.07;;;;;;;;;;5163178;27;20491;-81
2023/08/02 09:29:00;;;;;;;21.13;20.03;;;;;;;;;;5146579;27;20494;-80
2023/08/02 09:31:28;;;;;;;21.57;20.27;;;;;;;;;;5138454;27;20463;-80
2023/08/02 09:33:56;;;;;;;21.03;19.93;;;;;;;;;;5137757;27;20815;-81
2023/08/02 09:36:24;;;;;;;21.73;20.53;;;;;;;;;;5138235;27;20439;-80
2023/08/02 09:39:01;;;;;;;20.90;19.80;;;;;;;;;;5137589;27;20435;-78
2023/08/02 09:41:29;;;;;;;21.83;20.37;;;;;;;;;;5137228;27;20650;-78
2023/08/02 09:43:56;;;;;;;21.60;20.40;;;;;;;;;;5138162;27;20418;-77
2023/08/02 09:46:25;;;;;;;22.50;21.30;;;;;;;;;;5139049;27;20486;-78
2023/08/02 09:48:52;;;;;;;21.87;20.67;;;;;;;;;;5137066;27;20500;-78
2023/08/02 09:51:19;;;;;;;20.77;19.60;;;;;;;;;;5150772;27;20490;-76
2023/08/02 09:54:04;;;;;;;21.00;19.63;;;;;;;;;;5137933;27;20430;-78
2023/08/02 09:56:34;;;;;;;20.10;19.00;;;;;;;;;;5137083;27;20428;-78
2023/08/02 09:59:02;;;;;;;21.00;19.90;;;;;;;;;;5137713;27;20447;-77
2023/08/02 10:01:30;;;;;;;21.37;19.90;;;;;;;;;;5137709;27;20497;-77
2023/08/02 10:03:58;;;;;;;22.00;20.90;;;;;;;;;;5156842;27;20485;-78
2023/08/02 10:06:29;;;;;;;22.20;20.83;;;;;;;;;;5160341;27;20470;-81
2023/08/02 10:08:58;;;;;;;22.53;21.33;;;;;;;;;;5160926;27;20436;-80
2023/08/02 10:11:26;;;;;;;23.50;22.17;;;;;;;;;;5160808;27;20478;-81
2023/08/02 10:13:55;;;;;;;21.07;19.97;;;;;;;;;;5161134;27;20438;-81
2023/08/02 10:16:25;;;;;;;22.47;21.17;;;;;;;;;;5159589;27;20926;-80
2023/08/02 10:18:53;;;;;;;23.63;22.33;;;;;;;;;;5153447;27;20481;-78
2023/08/02 10:21:22;;;;;;;24.23;22.73;;;;;;;;;;5148457;27;21887;-78
2023/08/02 10:23:50;;;;;;;23.37;21.87;;;;;;;;;;5146598;27;20955;-80
2023/08/02 10:26:18;;;;;;;22.90;21.63;;;;;;;;;;5155698;27;20989;-79
2023/08/02 10:28:46;;;;;;;23.27;21.90;;;;;;;;;;5142610;27;20445;-78
2023/08/02 10:31:14;;;;;;;21.13;20.03;;;;;;;;;;5158196;27;20953;-78
2023/08/02 10:33:41;;;;;;;23.37;21.97;;;;;;;;;;5157563;27;20450;-80
2023/08/02 10:36:09;;;;;;;22.83;21.43;;;;;;;;;;5157161;27;20445;-78
2023/08/02 10:38:49;;;;;;;23.30;22.00;;;;;;;;;;5156247;27;20469;-78
2023/08/02 10:41:17;;;;;;;22.13;20.83;;;;;;;;;;5158523;27;20467;-78
2023/08/02 10:44:04;;;;;;;22.80;21.57;;;;;;;;;;5159243;27;20427;-77
2023/08/02 10:46:33;;;;;;;23.30;22.00;;;;;;;;;;5162512;27;21061;-81
2023/08/02 10:49:25;;;;;;;23.00;21.63;;;;;;;;;;5163708;27;20533;-83
2023/08/02 10:51:56;;;;;;;22.67;20.63;;;;;;;;;;5160879;27;20474;-81
2023/08/02 10:54:25;;;;;;;22.87;21.17;;;;;;;;;;5139886;27;20446;-79
2023/08/02 10:57:11;;;;;;;21.80;20.70;;;;;;;;;;5161205;27;20505;-79
2023/08/02 10:59:39;;;;;;;22.77;21.53;;;;;;;;;;5161343;27;20815;-78
2023/08/02 11:02:08;;;;;;;21.93;20.77;;;;;;;;;;5159829;27;20480;-78
2023/08/02 11:04:37;;;;;;;20.33;19.27;;;;;;;;;;5160641;27;20445;-79
2023/08/02 11:07:12;;;;;;;20.10;19.10;;;;;;;;;;5161386;27;20460;-80
2023/08/02 11:09:39;;;;;;;21.10;19.90;;;;;;;;;;5161039;27;20430;-82
2023/08/02 11:12:11;;;;;;;21.00;19.93;;;;;;;;;;5164451;27;21009;-81
2023/08/02 11:14:38;;;;;;;20.50;19.50;;;;;;;;;;5165450;27;20511;-82
2023/08/02 11:17:07;;;;;;;19.70;18.80;;;;;;;;;;5164187;27;20442;-79
2023/08/02 11:19:35;;;;;;;20.47;19.37;;;;;;;;;;5155159;27;20810;-81
2023/08/02 11:22:02;;;;;;;20.27;19.20;;;;;;;;;;5143803;27;20482;-81
2023/08/02 11:24:29;;;;;;;20.03;19.00;;;;;;;;;;5141298;27;20457;-81
2023/08/02 11:26:57;;;;;;;19.97;18.97;;;;;;;;;;5137923;27;20485;-81
2023/08/02 11:29:24;;;;;;;20.33;19.23;;;;;;;;;;5135499;27;20437;-80
2023/08/02 11:31:51;;;;;;;19.80;18.80;;;;;;;;;;5135971;27;20463;-80
2023/08/02 11:34:20;;;;;;;18.30;17.40;;;;;;;;;;5142787;27;20463;-79
2023/08/02 11:36:48;;;;;;;19.10;18.20;;;;;;;;;;5172373;27;20435;-79
2023/08/02 11:39:15;;;;;;;18.13;17.23;;;;;;;;;;5167747;27;20539;-81
2023/08/02 11:41:47;;;;;;;17.40;16.60;;;;;;;;;;5157193;27;20820;-81
2023/08/02 11:44:17;;;;;;;17.80;17.00;;;;;;;;;;5158847;27;20419;-80
2023/08/02 11:46:45;;;;;;;18.47;17.67;;;;;;;;;;5158057;27;20482;-81
2023/08/02 11:49:12;;;;;;;18.20;17.40;;;;;;;;;;5157577;27;20456;-81
2023/08/02 11:51:43;;;;;;;18.23;17.43;;;;;;;;;;5156048;27;20477;-81
2023/08/02 11:54:11;;;;;;;18.23;17.33;;;;;;;;;;5155482;27;20415;-78
2023/08/02 11:59:44;;;;;;;18.43;17.53;;;;;;;;;;5132070;27;20381;-78
2023/08/02 12:02:22;;;;;;;18.63;17.73;;;;;;;;;;5133663;27;20501;-77
2023/08/02 12:04:49;;;;;;;18.07;17.07;;;;;;;;;;5134612;27;20789;-77
2023/08/02 12:07:26;;;;;;;18.40;17.57;;;;;;;;;;5147777;27;20481;-78
2023/08/02 12:09:53;;;;;;;18.80;17.90;;;;;;;;;;5157841;27;20444;-78
2023/08/02 12:12:20;;;;;;;18.87;17.97;;;;;;;;;;5154203;27;20456;-74
2023/08/02 12:14:47;;;;;;;18.30;17.50;;;;;;;;;;5153763;27;20442;-75
2023/08/02 12:17:18;;;;;;;19.23;18.33;;;;;;;;;;5154478;27;20456;-74
2023/08/02 12:19:45;;;;;;;20.50;19.60;;;;;;;;;;5153419;27;20449;-75
2023/08/02 12:22:12;;;;;;;20.83;19.93;;;;;;;;;;5152451;27;21042;-75
2023/08/02 12:24:41;;;;;;;26.37;24.87;;;;;;;;;;5154033;27;20438;-74
2023/08/02 12:27:15;;;;;;;22.83;21.83;;;;;;;;;;5144166;27;20815;-74
2023/08/02 12:29:42;;;;;;;23.10;22.10;;;;;;;;;;5132601;27;20495;-75
2023/08/02 12:32:10;;;;;;;23.90;22.80;;;;;;;;;;5135837;28;20461;-75
2023/08/02 12:34:37;;;;;;;23.63;22.63;;;;;;;;;;5136560;28;20489;-75
2023/08/02 12:37:05;;;;;;;25.10;23.90;;;;;;;;;;5136918;27;20458;-75
2023/08/02 12:39:32;;;;;;;23.80;22.80;;;;;;;;;;5136492;28;20409;-75
2023/08/02 12:42:00;;;;;;;24.73;23.53;;;;;;;;;;5135492;27;20524;-75
2023/08/02 12:44:27;;;;;;;23.87;22.87;;;;;;;;;;5137925;28;20481;-74
2023/08/02 12:46:54;;;;;;;24.60;23.60;;;;;;;;;;5137968;28;20458;-74
2023/08/02 12:49:21;;;;;;;25.43;24.33;;;;;;;;;;5138529;27;20440;-75
2023/08/02 12:51:48;;;;;;;22.97;22.03;;;;;;;;;;5136360;27;20486;-75
2023/08/02 12:54:16;;;;;;;24.90;23.90;;;;;;;;;;5134653;27;20454;-74
2023/08/02 12:56:43;;;;;;;24.37;23.27;;;;;;;;;;5137280;27;20943;-76
2023/08/02 12:59:11;;;;;;;24.03;22.93;;;;;;;;;;5140023;27;20439;-75
2023/08/02 13:01:39;;;;;;;22.97;21.97;;;;;;;;;;5136095;27;20463;-75
2023/08/02 13:04:06;;;;;;;22.97;21.77;;;;;;;;;;5135713;27;20430;-76
2023/08/02 13:06:33;;;;;;;22.53;21.63;;;;;;;;;;5135660;27;20420;-75
2023/08/02 13:09:00;;;;;;;22.10;21.10;;;;;;;;;;5148980;27;20425;-75
2023/08/02 13:11:27;;;;;;;23.00;21.60;;;;;;;;;;5156936;27;20465;-78
2023/08/02 13:13:54;;;;;;;20.30;19.40;;;;;;;;;;5156524;27;20438;-75
2023/08/02 13:16:22;;;;;;;20.00;19.10;;;;;;;;;;5139522;27;20442;-75
2023/08/02 13:18:49;;;;;;;20.13;19.33;;;;;;;;;;5134995;27;20426;-75
2023/08/02 13:21:17;;;;;;;19.33;18.53;;;;;;;;;;5141925;27;20558;-76
2023/08/02 13:23:44;;;;;;;19.40;18.60;;;;;;;;;;5138170;27;20447;-76
2023/08/02 13:26:11;;;;;;;18.00;17.30;;;;;;;;;;5155301;27;20468;-75
2023/08/02 13:28:38;;;;;;;18.03;17.33;;;;;;;;;;5153710;27;20530;-75
2023/08/02 13:31:05;;;;;;;17.63;16.93;;;;;;;;;;5156082;27;20466;-75
2023/08/02 13:33:33;;;;;;;17.87;17.17;;;;;;;;;;5156349;27;20463;-76
2023/08/02 13:36:00;;;;;;;18.30;17.60;;;;;;;;;;5156175;27;20454;-75
2023/08/02 13:38:27;;;;;;;19.17;18.17;;;;;;;;;;5155826;27;20472;-75
2023/08/02 13:40:54;;;;;;;18.20;17.50;;;;;;;;;;5142506;27;20486;-75
2023/08/02 13:43:21;;;;;;;19.13;18.30;;;;;;;;;;5134966;27;20951;-75
2023/08/02 13:45:48;;;;;;;17.67;16.87;;;;;;;;;;5149022;27;20453;-74
2023/08/02 13:48:15;;;;;;;18.87;18.07;;;;;;;;;;5155846;27;20477;-75
2023/08/02 13:50:44;;;;;;;18.53;17.73;;;;;;;;;;5155073;27;20962;-75
2023/08/02 13:53:11;;;;;;;19.07;18.27;;;;;;;;;;5155756;27;20498;-75
2023/08/02 13:55:38;;;;;;;19.50;18.70;;;;;;;;;;5151416;27;20466;-76
2023/08/02 13:58:05;;;;;;;19.37;18.50;;;;;;;;;;5134941;27;20458;-75
2023/08/02 14:00:32;;;;;;;20.17;19.27;;;;;;;;;;5133707;27;20467;-75
2023/08/02 14:02:59;;;;;;;21.10;20.20;;;;;;;;;;5134972;27;20435;-75
2023/08/02 14:05:26;;;;;;;20.60;19.70;;;;;;;;;;5134451;27;20434;-75
2023/08/02 14:07:54;;;;;;;19.63;18.83;;;;;;;;;;5134269;27;20470;-75
2023/08/02 14:10:21;;;;;;;20.23;19.30;;;;;;;;;;5134017;27;20481;-75
2023/08/02 14:12:50;;;;;;;20.53;19.43;;;;;;;;;;5135551;27;20442;-75
2023/08/02 14:15:17;;;;;;;21.33;20.43;;;;;;;;;;5139820;27;20417;-74
2023/08/02 14:17:44;;;;;;;21.43;20.43;;;;;;;;;;5155882;27;21023;-75
2023/08/02 14:20:11;;;;;;;23.70;22.60;;;;;;;;;;5155506;27;20503;-74
2023/08/02 14:22:38;;;;;;;22.27;21.17;;;;;;;;;;5157514;27;20596;-75
2023/08/02 14:25:08;;;;;;;22.00;21.00;;;;;;;;;;5158679;27;20413;-76